OOCL Hamburg — VRZK9 — position and weather

sailwx.info

Track history (hours):
 
Tides and Currents Weather Stations Pressure Air Temp Water Temp Dewpoint Dewpoint Depression Visibility Wind Speed Wind Dir Waves Ship Positions

OOCL Hamburg

Last reported at 2015-May-04 08:32 UTC. Time now 2015-May-04 16:06 UTC.
Position N 01°15' E 104°11'.

Length 323 m; beam 42.8 m; draft 14.5 m.

Type: Cargo ship. MMSI: 477702000.

Date/timePositionNaut miles runAvg speedWind from/ knotsBaromVisibWave heightAir tempDewpointWater temp
2015-May-04 08:32N 01°15' E 104°11'1515.7
2015-May-04 07:33N 01°13' E 103°55'5 5.4
2015-May-04 06:33N 01°16' E 103°51'0 0.0
2015-May-04 05:13N 01°16' E 103°51'0 0.0
2015-May-04 04:19N 01°16' E 103°51'0 0.0
2015-May-04 03:31N 01°16' E 103°51'0 0.0
2015-May-04 02:07N 01°16' E 103°51'0 0.0
2015-May-04 01:31N 01°16' E 103°51'0 0.0
2015-May-04 00:07N 01°16' E 103°51'0 0.0
2015-May-03 22:19N 01°16' E 103°51'0 0.0
2015-May-03 21:13N 01°16' E 103°51'0 0.0
2015-May-03 20:31N 01°16' E 103°51'0 0.0
2015-May-03 19:31N 01°16' E 103°51'0 0.0
2015-May-03 18:25N 01°16' E 103°51'0 0.5
2015-May-03 17:33N 01°16' E 103°51'1 0.9
2015-May-03 16:33N 01°16' E 103°50'0 0.0
2015-May-03 15:31N 01°16' E 103°50'0 0.0
2015-May-03 14:31N 01°16' E 103°50'0 0.0
2015-May-03 13:31N 01°16' E 103°50'0 0.0
2015-May-03 12:28N 01°16' E 103°50'0 0.0
2015-May-03 11:28N 01°16' E 103°50'0 0.0
2015-May-03 10:31N 01°16' E 103°50'0 0.0
2015-May-03 09:28N 01°16' E 103°50'0 0.0
2015-May-03 08:28N 01°16' E 103°50'0 0.0
2015-May-03 07:31N 01°16' E 103°50'0 0.0
2015-May-03 06:19N 01°16' E 103°50'0 0.0
2015-May-03 05:28N 01°16' E 103°50'0 0.0
2015-May-03 04:22N 01°16' E 103°50'0 0.0
2015-May-03 03:31N 01°16' E 103°50'0 0.0
2015-May-03 02:25N 01°16' E 103°50'0 0.0
2015-May-03 01:32N 01°16' E 103°50'0 0.0
2015-May-03 00:31N 01°16' E 103°50'0 0.0
2015-May-02 23:19N 01°16' E 103°50'0 0.0
2015-May-02 22:31N 01°16' E 103°50'0 0.0
2015-May-02 21:28N 01°16' E 103°50'0 0.0
2015-May-02 20:28N 01°16' E 103°50'0 0.0
2015-May-02 19:28N 01°16' E 103°50'0 0.0
2015-May-02 18:28N 01°16' E 103°50'0 0.0
2015-May-02 17:28N 01°16' E 103°50'0 0.0
2015-May-02 16:28N 01°16' E 103°50'0 0.0
2015-May-02 15:31N 01°16' E 103°50'0 0.0
2015-May-02 14:31N 01°16' E 103°50'0 0.0
2015-May-02 13:22N 01°16' E 103°50'0 0.0
2015-May-02 12:19N 01°16' E 103°50'0 0.0
2015-May-02 11:28N 01°16' E 103°50'0 0.0
2015-May-02 10:31N 01°16' E 103°50'0 0.1
2015-May-02 09:34N 01°16' E 103°50'4 3.5
2015-May-02 08:33N 01°14' E 103°53'9 9.2
2015-May-02 07:33N 01°08' E 103°46'7212.0
2015-May-02 01:33N 01°40' E 102°42'1313.2
2015-May-02 00:33N 01°46' E 102°30'1313.5
2015-May-01 23:33N 01°52' E 102°18'6913.8
2015-May-01 18:31N 02°35' E 101°24'1413.6
2015-May-01 17:32N 02°42' E 101°12'1513.5
2015-May-01 16:23N 02°49' E 100°59'  
Track history (hours):
 
Tides and Currents Weather Stations Pressure Air Temp Water Temp Dewpoint Dewpoint Depression Visibility Wind Speed Wind Dir Waves Ship Positions

OOCL Hamburg

Last reported at 2015-May-04 08:32 UTC. Time now 2015-May-04 16:06 UTC.
Position N 01°15' E 104°11'.

Length 323 m; beam 42.8 m; draft 14.5 m.

Type: Cargo ship. MMSI: 477702000.

Date/timePositionNaut miles runAvg speedWind from/ knotsBaromVisibWave heightAir tempDewpointWater temp
2015-May-04 08:32N 01°15' E 104°11'1515.7
2015-May-04 07:33N 01°13' E 103°55'5 5.4
2015-May-04 06:33N 01°16' E 103°51'0 0.0
2015-May-04 05:13N 01°16' E 103°51'0 0.0
2015-May-04 04:19N 01°16' E 103°51'0 0.0
2015-May-04 03:31N 01°16' E 103°51'0 0.0
2015-May-04 02:07N 01°16' E 103°51'0 0.0
2015-May-04 01:31N 01°16' E 103°51'0 0.0
2015-May-04 00:07N 01°16' E 103°51'0 0.0
2015-May-03 22:19N 01°16' E 103°51'0 0.0
2015-May-03 21:13N 01°16' E 103°51'0 0.0
2015-May-03 20:31N 01°16' E 103°51'0 0.0
2015-May-03 19:31N 01°16' E 103°51'0 0.0
2015-May-03 18:25N 01°16' E 103°51'0 0.5
2015-May-03 17:33N 01°16' E 103°51'1 0.9
2015-May-03 16:33N 01°16' E 103°50'0 0.0
2015-May-03 15:31N 01°16' E 103°50'0 0.0
2015-May-03 14:31N 01°16' E 103°50'0 0.0
2015-May-03 13:31N 01°16' E 103°50'0 0.0
2015-May-03 12:28N 01°16' E 103°50'0 0.0
2015-May-03 11:28N 01°16' E 103°50'0 0.0
2015-May-03 10:31N 01°16' E 103°50'0 0.0
2015-May-03 09:28N 01°16' E 103°50'0 0.0
2015-May-03 08:28N 01°16' E 103°50'0 0.0
2015-May-03 07:31N 01°16' E 103°50'0 0.0
2015-May-03 06:19N 01°16' E 103°50'0 0.0
2015-May-03 05:28N 01°16' E 103°50'0 0.0
2015-May-03 04:22N 01°16' E 103°50'0 0.0
2015-May-03 03:31N 01°16' E 103°50'0 0.0
2015-May-03 02:25N 01°16' E 103°50'0 0.0
2015-May-03 01:32N 01°16' E 103°50'0 0.0
2015-May-03 00:31N 01°16' E 103°50'0 0.0
2015-May-02 23:19N 01°16' E 103°50'0 0.0
2015-May-02 22:31N 01°16' E 103°50'0 0.0
2015-May-02 21:28N 01°16' E 103°50'0 0.0
2015-May-02 20:28N 01°16' E 103°50'0 0.0
2015-May-02 19:28N 01°16' E 103°50'0 0.0
2015-May-02 18:28N 01°16' E 103°50'0 0.0
2015-May-02 17:28N 01°16' E 103°50'0 0.0
2015-May-02 16:28N 01°16' E 103°50'0 0.0
2015-May-02 15:31N 01°16' E 103°50'0 0.0
2015-May-02 14:31N 01°16' E 103°50'0 0.0
2015-May-02 13:22N 01°16' E 103°50'0 0.0
2015-May-02 12:19N 01°16' E 103°50'0 0.0
2015-May-02 11:28N 01°16' E 103°50'0 0.0
2015-May-02 10:31N 01°16' E 103°50'0 0.1
2015-May-02 09:34N 01°16' E 103°50'4 3.5
2015-May-02 08:33N 01°14' E 103°53'9 9.2
2015-May-02 07:33N 01°08' E 103°46'7212.0
2015-May-02 01:33N 01°40' E 102°42'1313.2
2015-May-02 00:33N 01°46' E 102°30'1313.5
2015-May-01 23:33N 01°52' E 102°18'6913.8
2015-May-01 18:31N 02°35' E 101°24'1413.6
2015-May-01 17:32N 02°42' E 101°12'1513.5
2015-May-01 16:23N 02°49' E 100°59'  

Dump ship's entire track history